Time;durP1;ratioP1;P1;durP2;ratioP2;P2;SDS_P1;SDS_P2;PMS_P1;PMS_P2;Temp;Humidity;BMP_temperature;BMP_pressure;BME280_temperature;BME280_humidity;BME280_pressure;Samples;Min_cycle;Max_cycle;Signal;HPM_P1;HPM_P2
2023/05/29 00:00:17;;;;;;;12.65;2.83;;;14.40;94.50;;;;;;5056648;28;20080;-92
2023/05/29 00:02:44;;;;;;;10.65;2.40;;;14.30;95.20;;;;;;5053584;28;20099;-92
2023/05/29 00:05:11;;;;;;;13.68;2.78;;;14.30;95.00;;;;;;5052657;28;20515;-91
2023/05/29 00:07:38;;;;;;;11.50;2.15;;;14.30;94.70;;;;;;5052496;28;20060;-91
2023/05/29 00:10:07;;;;;;;12.98;2.80;;;14.20;94.00;;;;;;5060093;28;20052;-90
2023/05/29 00:12:33;;;;;;;11.75;2.60;;;14.20;94.00;;;;;;5070954;28;20049;-91
2023/05/29 00:14:59;;;;;;;11.38;2.65;;;14.10;94.90;;;;;;5070892;28;20067;-91
2023/05/29 00:17:25;;;;;;;12.63;2.50;;;14.10;94.70;;;;;;5070309;28;20397;-92
2023/05/29 00:19:50;;;;;;;13.68;2.60;;;14.00;94.70;;;;;;5072702;28;20098;-92
2023/05/29 00:22:16;;;;;;;10.75;2.53;;;14.00;95.00;;;;;;5067091;28;20503;-92
2023/05/29 00:24:42;;;;;;;11.95;2.70;;;13.90;95.10;;;;;;5075227;28;20059;-92
2023/05/29 00:27:08;;;;;;;11.45;2.65;;;14.00;95.20;;;;;;5095037;28;20370;-91
2023/05/29 00:29:35;;;;;;;13.90;2.55;;;13.90;95.20;;;;;;5073787;28;20039;-91
2023/05/29 00:32:01;;;;;;;10.35;2.35;;;13.90;95.40;;;;;;5064674;28;20451;-92
2023/05/29 00:34:27;;;;;;;10.25;2.20;;;13.80;95.40;;;;;;5074723;28;20044;-91
2023/05/29 00:36:55;;;;;;;10.85;2.40;;;13.80;95.60;;;;;;5055468;28;20393;-92
2023/05/29 00:39:21;;;;;;;13.15;2.55;;;13.90;95.60;;;;;;5071617;28;20048;-92
2023/05/29 00:41:50;;;;;;;12.85;2.63;;;13.80;95.50;;;;;;5054920;28;20049;-92
2023/05/29 00:44:22;;;;;;;10.48;2.40;;;13.80;95.50;;;;;;5074743;28;20408;-91
2023/05/29 00:46:53;;;;;;;14.15;2.38;;;13.70;95.60;;;;;;5071776;28;20103;-93
2023/05/29 00:49:21;;;;;;;10.00;2.50;;;13.70;95.60;;;;;;5074906;28;20098;-92
2023/05/29 00:51:48;;;;;;;12.77;2.60;;;13.70;95.70;;;;;;5067362;28;20132;-91
2023/05/29 00:54:18;;;;;;;11.52;2.67;;;13.60;95.10;;;;;;5062245;28;20037;-91
2023/05/29 00:56:44;;;;;;;11.13;2.03;;;13.60;95.50;;;;;;5056207;28;20052;-91
2023/05/29 00:59:11;;;;;;;11.32;2.40;;;13.60;95.50;;;;;;5054876;28;20480;-91
2023/05/29 01:01:37;;;;;;;12.82;2.38;;;13.60;95.70;;;;;;5064965;28;20461;-91
2023/05/29 01:04:08;;;;;;;11.88;2.28;;;13.50;95.70;;;;;;5061754;28;20047;-92
2023/05/29 01:06:33;;;;;;;11.98;2.38;;;13.50;95.70;;;;;;5073879;28;20036;-92
2023/05/29 01:08:59;;;;;;;10.95;2.35;;;13.50;95.70;;;;;;5068173;28;20042;-92
2023/05/29 01:11:35;;;;;;;11.75;2.53;;;13.40;95.70;;;;;;5073313;28;20044;-92
2023/05/29 01:14:05;;;;;;;12.60;2.60;;;13.40;95.60;;;;;;5056550;28;20090;-91
2023/05/29 01:16:42;;;;;;;10.88;2.33;;;13.30;95.70;;;;;;5065257;28;20090;-92
2023/05/29 01:19:37;;;;;;;11.02;2.03;;;13.40;95.80;;;;;;5068405;28;20041;-92
2023/05/29 01:22:36;;;;;;;10.07;2.30;;;13.30;95.70;;;;;;5069265;28;20090;-92
2023/05/29 01:25:14;;;;;;;9.50;1.75;;;13.30;95.70;;;;;;5080313;28;20124;-91
2023/05/29 01:27:41;;;;;;;13.18;2.45;;;13.20;95.70;;;;;;5048785;28;20048;-92
2023/05/29 01:30:08;;;;;;;10.68;2.40;;;13.20;95.50;;;;;;5072745;28;20109;-91
2023/05/29 01:32:35;;;;;;;12.20;2.65;;;13.20;95.50;;;;;;5062602;28;20044;-91
2023/05/29 01:35:01;;;;;;;9.05;2.53;;;13.20;95.40;;;;;;5092112;28;20036;-92
2023/05/29 01:37:27;;;;;;;11.13;2.53;;;13.10;95.40;;;;;;5101196;28;20048;-92
2023/05/29 01:39:53;;;;;;;10.05;2.15;;;13.10;95.50;;;;;;5092602;28;20048;-93
2023/05/29 01:42:19;;;;;;;8.40;1.90;;;13.00;95.60;;;;;;5067341;28;20504;-92
2023/05/29 01:44:46;;;;;;;12.13;2.67;;;13.00;95.50;;;;;;5094115;28;20045;-92
2023/05/29 01:47:13;;;;;;;9.85;2.13;;;12.90;95.50;;;;;;5066129;28;20078;-92
2023/05/29 01:49:39;;;;;;;10.82;2.33;;;12.90;95.50;;;;;;5073542;28;20045;-92
2023/05/29 01:52:05;;;;;;;12.60;2.17;;;12.90;95.70;;;;;;5059057;28;20567;-93
2023/05/29 01:54:31;;;;;;;11.63;2.28;;;12.80;95.70;;;;;;5071635;28;20481;-92
2023/05/29 01:56:57;;;;;;;11.93;2.42;;;12.80;95.80;;;;;;5055041;28;20063;-92
2023/05/29 01:59:23;;;;;;;10.63;2.15;;;12.70;95.70;;;;;;5068224;28;20492;-92
2023/05/29 02:01:48;;;;;;;9.25;2.00;;;12.70;95.90;;;;;;5069833;28;20041;-92
2023/05/29 02:04:14;;;;;;;10.55;2.10;;;12.60;95.90;;;;;;5065956;28;20047;-92
2023/05/29 02:06:41;;;;;;;11.43;2.30;;;12.60;95.90;;;;;;5056718;28;20045;-92
2023/05/29 02:09:06;;;;;;;11.02;2.47;;;12.60;95.90;;;;;;5061241;28;20056;-92
2023/05/29 02:11:32;;;;;;;12.10;2.08;;;12.50;96.00;;;;;;5058135;28;20099;-92
2023/05/29 02:13:57;;;;;;;8.85;2.03;;;12.50;96.00;;;;;;5070634;28;20483;-93
2023/05/29 02:16:23;;;;;;;10.43;1.92;;;12.50;96.20;;;;;;5098347;28;20045;-93
2023/05/29 02:18:49;;;;;;;10.38;2.20;;;12.40;96.20;;;;;;5068579;28;20101;-93
2023/05/29 02:21:14;;;;;;;10.65;2.22;;;12.40;96.20;;;;;;5065363;28;20045;-92
2023/05/29 02:23:40;;;;;;;7.78;2.20;;;12.40;96.20;;;;;;5057052;28;20033;-93
2023/05/29 02:26:05;;;;;;;11.73;2.47;;;12.40;96.30;;;;;;5072852;28;20134;-92
2023/05/29 02:28:31;;;;;;;12.10;2.10;;;12.40;96.20;;;;;;5065483;28;20033;-92
2023/05/29 02:30:57;;;;;;;11.77;2.20;;;12.30;96.20;;;;;;5066440;28;20040;-93
2023/05/29 02:33:22;;;;;;;8.05;2.05;;;12.30;96.30;;;;;;5065530;28;20078;-92
2023/05/29 02:35:48;;;;;;;10.20;2.25;;;12.20;96.20;;;;;;5056218;28;20082;-92
2023/05/29 02:38:14;;;;;;;11.10;2.28;;;12.20;96.10;;;;;;5062380;28;20036;-92
2023/05/29 02:40:39;;;;;;;10.05;2.10;;;12.20;96.30;;;;;;5072567;28;20044;-92
2023/05/29 02:43:06;;;;;;;9.93;2.13;;;12.10;96.30;;;;;;5067779;28;20037;-92
2023/05/29 02:45:32;;;;;;;7.45;1.92;;;12.10;96.20;;;;;;5090948;28;20086;-92
2023/05/29 02:47:57;;;;;;;11.27;2.10;;;12.10;96.20;;;;;;5069843;28;20041;-92
2023/05/29 02:50:23;;;;;;;11.05;2.35;;;12.10;96.30;;;;;;5054839;28;20044;-92
2023/05/29 02:52:48;;;;;;;10.32;2.28;;;12.10;96.20;;;;;;5066074;28;20044;-93
2023/05/29 02:55:15;;;;;;;11.85;2.38;;;12.00;96.30;;;;;;5058941;28;20044;-92
2023/05/29 02:57:41;;;;;;;8.30;2.15;;;12.00;96.40;;;;;;5065396;28;20032;-92
2023/05/29 03:00:08;;;;;;;12.27;2.60;;;12.00;96.40;;;;;;5058142;28;20053;-91
2023/05/29 03:02:34;;;;;;;10.40;2.53;;;12.00;96.50;;;;;;5054365;28;20526;-92
2023/05/29 03:05:00;;;;;;;8.85;1.85;;;12.00;96.40;;;;;;5058079;28;20500;-92
2023/05/29 03:07:26;;;;;;;9.93;2.35;;;11.90;96.40;;;;;;5073631;28;20187;-92
2023/05/29 03:09:52;;;;;;;9.75;2.15;;;11.90;96.50;;;;;;5057372;28;20088;-92
2023/05/29 03:12:18;;;;;;;12.02;2.40;;;11.90;96.60;;;;;;5058876;28;20044;-92
2023/05/29 03:14:45;;;;;;;11.90;2.60;;;11.90;96.90;;;;;;5061328;28;20040;-92
2023/05/29 03:17:10;;;;;;;11.02;2.35;;;11.90;96.60;;;;;;5057010;28;20040;-92
2023/05/29 03:19:37;;;;;;;11.27;2.17;;;11.90;96.60;;;;;;5063866;28;20047;-91
2023/05/29 03:22:03;;;;;;;10.07;2.30;;;11.80;96.30;;;;;;5064472;28;20413;-92
2023/05/29 03:24:29;;;;;;;9.38;1.83;;;11.80;96.20;;;;;;5054428;28;20043;-92
2023/05/29 03:26:55;;;;;;;11.13;2.10;;;11.80;96.10;;;;;;5062740;28;20063;-92
2023/05/29 03:29:21;;;;;;;11.10;2.72;;;11.70;96.10;;;;;;5069321;28;20044;-92
2023/05/29 03:31:47;;;;;;;10.02;2.17;;;11.70;96.10;;;;;;5056126;28;20457;-92
2023/05/29 03:34:13;;;;;;;9.82;2.30;;;11.60;96.10;;;;;;5066766;28;20072;-91
2023/05/29 03:36:39;;;;;;;10.95;2.10;;;11.60;96.10;;;;;;5072219;28;20044;-92
2023/05/29 03:39:04;;;;;;;9.13;2.10;;;11.60;96.10;;;;;;5106777;28;20036;-92
2023/05/29 03:41:30;;;;;;;10.13;2.15;;;11.60;96.10;;;;;;5054095;28;20037;-91
2023/05/29 03:43:56;;;;;;;11.80;2.10;;;11.50;96.00;;;;;;5054983;28;20033;-91
2023/05/29 03:46:21;;;;;;;12.25;2.38;;;11.50;96.00;;;;;;5065991;28;20048;-92
2023/05/29 03:48:47;;;;;;;9.07;2.38;;;11.40;96.00;;;;;;5061333;28;20442;-92
2023/05/29 03:51:13;;;;;;;9.57;2.10;;;11.40;96.00;;;;;;5065282;28;20503;-92
2023/05/29 03:53:38;;;;;;;8.63;2.03;;;11.40;95.80;;;;;;5110823;28;20395;-92
2023/05/29 03:56:05;;;;;;;13.75;2.45;;;11.30;95.60;;;;;;5095959;28;20043;-92
2023/05/29 03:58:31;;;;;;;6.97;1.92;;;11.30;95.50;;;;;;5063233;28;20044;-92
2023/05/29 04:00:56;;;;;;;10.05;2.22;;;11.30;95.50;;;;;;5062578;28;20423;-92
2023/05/29 04:03:22;;;;;;;8.45;2.03;;;11.20;95.50;;;;;;5056242;28;20052;-91
2023/05/29 04:05:48;;;;;;;10.80;2.40;;;11.20;95.50;;;;;;5057656;28;20447;-92
2023/05/29 04:08:13;;;;;;;10.65;2.60;;;11.10;95.60;;;;;;5059267;28;20044;-92
2023/05/29 04:10:39;;;;;;;9.27;2.30;;;11.10;95.60;;;;;;5064887;28;20048;-92
2023/05/29 04:13:08;;;;;;;13.82;2.90;;;11.10;95.60;;;;;;5060075;28;20041;-92
2023/05/29 04:15:34;;;;;;;8.60;2.05;;;11.00;95.50;;;;;;5063288;28;20047;-92
2023/05/29 04:18:00;;;;;;;10.68;2.30;;;11.00;95.50;;;;;;5107856;28;20032;-91
2023/05/29 04:20:25;;;;;;;8.13;2.05;;;11.00;95.60;;;;;;5072989;28;20040;-92
2023/05/29 04:22:51;;;;;;;11.10;2.15;;;10.90;95.70;;;;;;5064064;28;20097;-91
2023/05/29 04:25:17;;;;;;;10.18;1.95;;;10.90;95.70;;;;;;5075145;28;20051;-92
2023/05/29 04:27:48;;;;;;;9.60;2.10;;;10.90;95.70;;;;;;5102573;28;20048;-91
2023/05/29 04:30:14;;;;;;;8.85;2.13;;;10.90;95.70;;;;;;5048341;28;20493;-92
2023/05/29 04:32:40;;;;;;;10.98;2.55;;;10.90;95.70;;;;;;5070289;28;20037;-91
2023/05/29 04:35:06;;;;;;;9.95;1.98;;;10.80;95.80;;;;;;5056009;28;20422;-92
2023/05/29 04:37:37;;;;;;;9.40;1.90;;;10.80;95.80;;;;;;5058368;28;20048;-91
2023/05/29 04:40:08;;;;;;;13.68;2.55;;;10.80;95.80;;;;;;5055405;28;20408;-92
2023/05/29 04:42:34;;;;;;;8.93;1.80;;;10.80;95.90;;;;;;5055387;28;20087;-92
2023/05/29 04:45:00;;;;;;;9.15;1.95;;;10.80;95.90;;;;;;5055459;28;20057;-92
2023/05/29 04:47:26;;;;;;;6.80;2.10;;;10.80;96.00;;;;;;5057138;28;20051;-91
2023/05/29 04:49:52;;;;;;;10.23;2.00;;;10.80;96.10;;;;;;5075506;28;20048;-91
2023/05/29 04:52:17;;;;;;;8.60;2.20;;;10.80;96.10;;;;;;5100710;28;20118;-92
2023/05/29 04:54:43;;;;;;;9.52;2.20;;;10.80;96.20;;;;;;5056126;28;20037;-90
2023/05/29 04:57:09;;;;;;;7.95;2.10;;;10.80;96.30;;;;;;5076815;28;20044;-92
2023/05/29 04:59:34;;;;;;;10.07;2.22;;;10.80;96.20;;;;;;5075990;28;20037;-92
2023/05/29 05:02:00;;;;;;;8.07;1.92;;;10.80;96.30;;;;;;5073411;28;20036;-92
2023/05/29 05:04:26;;;;;;;9.85;2.10;;;10.80;96.30;;;;;;5060371;28;20119;-92
2023/05/29 05:06:52;;;;;;;8.88;1.92;;;10.80;96.30;;;;;;5055175;28;20080;-92
2023/05/29 05:09:17;;;;;;;10.70;2.40;;;10.80;96.40;;;;;;5055260;28;20056;-92
2023/05/29 05:11:43;;;;;;;8.20;1.92;;;10.80;96.50;;;;;;5060035;28;20069;-91
2023/05/29 05:14:09;;;;;;;9.35;1.80;;;10.90;96.50;;;;;;5087774;28;20083;-91
2023/05/29 05:16:34;;;;;;;13.00;2.50;;;10.90;96.30;;;;;;5053981;28;20040;-92
2023/05/29 05:19:00;;;;;;;11.63;2.30;;;10.90;96.00;;;;;;5054386;28;20124;-91
2023/05/29 05:21:26;;;;;;;10.60;2.38;;;10.90;96.10;;;;;;5054055;28;20408;-93
2023/05/29 05:23:51;;;;;;;12.38;2.78;;;10.90;96.00;;;;;;5053929;28;20045;-91
2023/05/29 05:26:17;;;;;;;10.57;2.13;;;10.90;95.90;;;;;;5054768;28;20053;-91
2023/05/29 05:28:42;;;;;;;11.60;2.28;;;10.90;95.80;;;;;;5054594;28;20041;-92
2023/05/29 05:31:08;;;;;;;13.10;2.53;;;11.00;96.00;;;;;;5054810;28;20045;-91
2023/05/29 05:33:34;;;;;;;12.35;2.17;;;11.00;96.00;;;;;;5053533;28;20048;-92
2023/05/29 05:36:00;;;;;;;11.55;2.30;;;11.00;96.10;;;;;;5053795;28;20388;-91
2023/05/29 05:38:26;;;;;;;11.77;2.20;;;11.10;96.10;;;;;;5053976;28;20045;-92
2023/05/29 05:40:51;;;;;;;15.50;2.67;;;11.10;96.20;;;;;;5061014;28;20190;-92
2023/05/29 05:43:17;;;;;;;10.32;2.25;;;11.20;96.10;;;;;;5054848;28;20052;-90
2023/05/29 05:45:42;;;;;;;10.98;2.40;;;11.20;95.90;;;;;;5064581;28;20124;-92
2023/05/29 05:48:08;;;;;;;11.70;2.30;;;11.30;95.80;;;;;;5053359;28;20056;-92
2023/05/29 05:50:34;;;;;;;15.07;2.50;;;11.30;95.80;;;;;;5053935;28;20076;-94
2023/05/29 05:53:00;;;;;;;9.82;2.20;;;11.40;96.00;;;;;;5056219;28;20037;-94
2023/05/29 05:55:27;;;;;;;12.75;2.85;;;11.40;96.00;;;;;;5067507;28;20090;-93
2023/05/29 05:57:53;;;;;;;11.25;2.42;;;11.40;96.00;;;;;;5075286;28;20058;-93
2023/05/29 06:00:19;;;;;;;11.10;2.22;;;11.50;95.90;;;;;;5069653;28;20131;-88
2023/05/29 06:02:45;;;;;;;9.82;2.22;;;11.50;95.90;;;;;;5052986;28;20064;-89
2023/05/29 06:05:11;;;;;;;10.95;2.25;;;11.50;95.90;;;;;;5064505;28;20048;-89
2023/05/29 06:07:37;;;;;;;9.60;2.45;;;11.50;95.50;;;;;;5063232;28;20032;-90
2023/05/29 06:10:04;;;;;;;11.75;2.60;;;11.60;95.60;;;;;;5088207;28;20049;-90
2023/05/29 06:12:30;;;;;;;11.57;2.40;;;11.60;95.40;;;;;;5057836;28;20072;-89
2023/05/29 06:14:55;;;;;;;12.93;2.42;;;11.60;95.00;;;;;;5055992;28;20481;-91
2023/05/29 06:17:21;;;;;;;18.05;3.20;;;11.70;94.90;;;;;;5066241;28;20045;-90
2023/05/29 06:19:47;;;;;;;9.70;2.25;;;11.70;94.80;;;;;;5057678;28;20145;-90
2023/05/29 06:22:15;;;;;;;12.05;2.60;;;11.70;94.70;;;;;;5073048;28;20041;-91
2023/05/29 06:24:40;;;;;;;14.07;2.58;;;11.70;94.60;;;;;;5060830;28;20079;-92
2023/05/29 06:27:07;;;;;;;12.75;2.88;;;11.80;94.70;;;;;;5055681;28;20049;-90
2023/05/29 06:29:33;;;;;;;15.98;3.20;;;11.80;94.70;;;;;;5062792;28;20037;-89
2023/05/29 06:32:02;;;;;;;10.27;2.53;;;11.90;94.70;;;;;;5053019;28;20040;-89
2023/05/29 06:34:27;;;;;;;11.95;2.88;;;11.90;94.70;;;;;;5051711;28;20091;-89
2023/05/29 06:36:53;;;;;;;13.38;2.70;;;12.00;94.80;;;;;;5059134;28;20044;-90
2023/05/29 06:39:19;;;;;;;16.30;2.95;;;12.00;94.80;;;;;;5033373;28;20040;-89
2023/05/29 06:41:46;;;;;;;17.02;2.90;;;12.10;94.40;;;;;;5050562;28;20080;-90
2023/05/29 06:44:11;;;;;;;14.18;2.60;;;12.10;94.30;;;;;;5067518;28;20060;-91
2023/05/29 06:46:37;;;;;;;14.52;2.92;;;12.10;94.40;;;;;;5058468;28;20083;-91
2023/05/29 06:49:03;;;;;;;15.63;3.15;;;12.20;94.10;;;;;;5054245;28;20485;-90
2023/05/29 06:51:29;;;;;;;14.48;2.70;;;12.30;94.30;;;;;;5055808;28;20408;-90
2023/05/29 06:53:55;;;;;;;15.70;2.78;;;12.30;94.40;;;;;;5046204;28;20401;-90
2023/05/29 06:56:21;;;;;;;20.38;3.15;;;12.40;94.40;;;;;;5049580;28;20079;-93
2023/05/29 06:58:47;;;;;;;15.43;3.00;;;12.40;93.90;;;;;;5074028;28;20053;-88
2023/05/29 07:01:13;;;;;;;14.00;3.13;;;12.50;94.20;;;;;;5066396;28;20040;-91
2023/05/29 07:03:38;;;;;;;15.80;3.33;;;12.50;94.30;;;;;;5072404;28;20044;-90
2023/05/29 07:06:06;;;;;;;15.93;3.42;;;12.50;94.30;;;;;;5054543;28;20124;-90
2023/05/29 07:08:31;;;;;;;12.68;2.33;;;12.60;94.60;;;;;;5057587;28;20060;-89
2023/05/29 07:10:57;;;;;;;12.35;2.80;;;12.60;94.20;;;;;;5054358;28;20095;-90
2023/05/29 07:13:25;;;;;;;12.10;3.20;;;12.70;94.30;;;;;;5054078;28;20045;-91
2023/05/29 07:15:51;;;;;;;13.57;2.83;;;12.80;94.30;;;;;;5054074;28;20059;-93
2023/05/29 07:18:16;;;;;;;16.67;3.78;;;12.80;94.00;;;;;;5054642;28;20037;-92
2023/05/29 07:20:42;;;;;;;15.77;3.40;;;12.90;93.90;;;;;;5067866;28;20040;-92
2023/05/29 07:23:08;;;;;;;13.10;3.08;;;13.00;94.10;;;;;;5073551;28;20080;-90
2023/05/29 07:25:33;;;;;;;13.25;3.05;;;13.00;93.90;;;;;;5058583;28;20033;-92
2023/05/29 07:27:59;;;;;;;12.23;2.88;;;13.10;94.10;;;;;;5055060;28;20051;-91
2023/05/29 07:30:24;;;;;;;18.00;3.15;;;13.10;94.10;;;;;;5080649;28;20126;-89
2023/05/29 07:32:50;;;;;;;18.45;3.60;;;13.20;94.10;;;;;;5086125;28;20091;-91
2023/05/29 07:35:16;;;;;;;14.15;3.80;;;13.30;93.60;;;;;;5071041;28;20040;-90
2023/05/29 07:37:41;;;;;;;10.48;2.92;;;13.30;93.60;;;;;;5072864;28;20123;-89
2023/05/29 07:40:17;;;;;;;16.60;3.78;;;13.40;93.70;;;;;;5073927;28;20491;-93
2023/05/29 07:42:43;;;;;;;17.23;3.25;;;13.40;93.20;;;;;;5107848;28;20079;-92
2023/05/29 07:45:12;;;;;;;15.90;3.30;;;13.50;93.50;;;;;;5093281;28;20502;-89
2023/05/29 07:47:40;;;;;;;11.80;3.08;;;13.50;93.50;;;;;;5053321;28;20099;-90
2023/05/29 07:50:06;;;;;;;13.25;3.08;;;13.60;93.80;;;;;;5062566;28;20040;-90
2023/05/29 07:52:32;;;;;;;14.73;2.95;;;13.60;93.80;;;;;;5052878;28;20037;-89
2023/05/29 07:54:58;;;;;;;13.90;2.95;;;13.70;93.80;;;;;;5057524;28;20032;-91
2023/05/29 07:57:25;;;;;;;13.48;3.20;;;13.80;93.80;;;;;;5058198;28;20098;-90
2023/05/29 07:59:50;;;;;;;10.90;3.00;;;13.80;93.90;;;;;;5059222;28;20036;-90
2023/05/29 08:02:16;;;;;;;14.50;3.25;;;13.90;93.50;;;;;;5057366;28;20052;-90
2023/05/29 08:04:42;;;;;;;10.88;3.30;;;14.00;93.60;;;;;;5051592;28;20045;-90
2023/05/29 08:07:08;;;;;;;21.90;3.75;;;14.10;93.70;;;;;;5066008;28;20048;-92
2023/05/29 08:09:38;;;;;;;16.88;3.17;;;14.10;92.60;;;;;;5069865;28;20052;-90
2023/05/29 08:12:05;;;;;;;20.25;3.50;;;14.00;91.60;;;;;;5093341;28;20047;-89
2023/05/29 08:14:31;;;;;;;21.02;3.42;;;14.00;91.90;;;;;;5061394;28;20088;-90
2023/05/29 08:16:57;;;;;;;15.05;3.45;;;14.10;92.00;;;;;;5067341;28;20087;-90
2023/05/29 08:19:41;;;;;;;19.52;3.90;;;14.10;92.30;;;;;;5071893;28;20036;-90
2023/05/29 08:22:07;;;;;;;16.77;3.47;;;14.10;91.90;;;;;;5061498;28;20049;-93
2023/05/29 08:24:33;;;;;;;19.70;3.83;;;14.20;92.10;;;;;;5060389;28;20067;-91
2023/05/29 08:26:59;;;;;;;23.17;4.50;;;14.30;92.10;;;;;;5070964;28;20552;-90
2023/05/29 08:29:25;;;;;;;16.70;3.45;;;14.40;91.90;;;;;;5073907;28;20033;-93
2023/05/29 08:31:51;;;;;;;19.08;3.45;;;14.40;92.10;;;;;;5064415;28;20043;-91
2023/05/29 08:34:17;;;;;;;16.48;3.97;;;14.40;91.60;;;;;;5067016;28;20415;-93
2023/05/29 08:36:42;;;;;;;13.73;3.53;;;14.50;90.90;;;;;;5063426;28;20115;-91
2023/05/29 08:39:08;;;;;;;17.27;3.58;;;14.50;91.40;;;;;;5057268;28;20040;-93
2023/05/29 08:41:48;;;;;;;23.52;4.10;;;14.50;91.50;;;;;;5060052;28;20133;-93
2023/05/29 08:44:15;;;;;;;21.40;4.40;;;14.50;90.20;;;;;;5055537;28;20052;-91
2023/05/29 08:46:42;;;;;;;15.32;3.22;;;14.50;90.70;;;;;;5057047;28;20052;-91
2023/05/29 08:49:10;;;;;;;18.70;3.55;;;14.50;91.00;;;;;;5076185;28;20048;-89
2023/05/29 08:51:40;;;;;;;16.90;3.50;;;14.60;90.50;;;;;;5064624;28;20080;-90
2023/05/29 08:54:06;;;;;;;15.80;3.40;;;14.60;91.00;;;;;;5056954;28;20041;-93
2023/05/29 08:56:34;;;;;;;21.73;3.85;;;14.70;91.60;;;;;;5059581;28;20052;-93
2023/05/29 08:59:01;;;;;;;15.07;3.72;;;14.70;91.50;;;;;;5056659;28;20131;-92
2023/05/29 09:01:26;;;;;;;22.13;3.90;;;14.90;91.80;;;;;;5074611;28;20087;-92
2023/05/29 09:03:52;;;;;;;17.17;3.30;;;14.90;91.80;;;;;;5076335;28;20068;-92
2023/05/29 09:06:18;;;;;;;17.13;3.72;;;15.00;92.10;;;;;;5075219;28;20045;-93
2023/05/29 09:08:44;;;;;;;17.10;3.50;;;15.00;91.10;;;;;;5076137;28;20374;-92
2023/05/29 09:11:10;;;;;;;14.68;3.33;;;15.10;91.50;;;;;;5076184;28;20048;-93
2023/05/29 09:13:36;;;;;;;20.90;3.70;;;15.20;91.70;;;;;;5075707;28;20056;-92
2023/05/29 09:16:04;;;;;;;17.40;3.63;;;15.20;91.70;;;;;;5075590;28;20040;-92
2023/05/29 09:18:31;;;;;;;17.27;3.83;;;15.30;91.40;;;;;;5109273;28;20137;-92
2023/05/29 09:20:58;;;;;;;14.40;3.38;;;15.30;90.90;;;;;;5075777;28;20056;-93
2023/05/29 09:23:25;;;;;;;13.60;3.45;;;15.40;91.40;;;;;;5076278;28;20037;-93
2023/05/29 09:25:54;;;;;;;17.90;4.10;;;15.40;91.70;;;;;;5076172;28;20051;-93
2023/05/29 09:28:28;;;;;;;15.57;3.88;;;15.40;91.80;;;;;;5074713;28;20055;-92
2023/05/29 09:30:53;;;;;;;18.35;3.38;;;15.40;90.90;;;;;;5075314;28;20369;-93
2023/05/29 09:33:19;;;;;;;20.95;4.03;;;15.40;90.80;;;;;;5039937;22;20054;-93
2023/05/29 09:35:46;;;;;;;14.93;3.30;;;15.50;90.40;;;;;;5014960;28;20397;-92
2023/05/29 09:38:17;;;;;;;13.63;3.28;;;15.50;91.00;;;;;;5015487;28;20052;-93
2023/05/29 09:40:46;;;;;;;13.75;3.42;;;15.50;91.40;;;;;;5015589;28;20037;-91
2023/05/29 09:43:16;;;;;;;19.83;3.78;;;15.60;91.90;;;;;;5016758;28;20077;-92
2023/05/29 09:45:50;;;;;;;13.32;3.17;;;15.70;91.00;;;;;;5015356;28;20093;-92
2023/05/29 09:48:23;;;;;;;16.05;3.45;;;15.70;91.30;;;;;;5014890;28;20050;-92
2023/05/29 09:50:49;;;;;;;19.40;3.55;;;15.80;91.60;;;;;;5014628;28;20073;-94
2023/05/29 09:53:27;;;;;;;19.92;3.65;;;15.90;91.40;;;;;;5014856;28;20053;-92
2023/05/29 09:55:54;;;;;;;11.77;2.95;;;15.90;90.60;;;;;;5004418;28;20955;-91
2023/05/29 09:58:21;;;;;;;20.77;4.03;;;15.90;91.00;;;;;;4997797;28;20058;-94
2023/05/29 10:00:48;;;;;;;17.27;3.90;;;15.90;90.60;;;;;;5020903;28;20034;-92
2023/05/29 10:03:14;;;;;;;18.35;3.38;;;15.90;89.60;;;;;;5010248;28;20049;-94
2023/05/29 10:05:46;;;;;;;15.70;3.40;;;15.90;90.50;;;;;;4998448;28;20046;-94
2023/05/29 10:08:14;;;;;;;15.40;3.38;;;15.90;90.80;;;;;;5009003;28;20117;-95
2023/05/29 10:10:46;;;;;;;16.15;3.53;;;16.00;91.00;;;;;;5012931;28;20038;-94
2023/05/29 10:13:13;;;;;;;15.60;3.47;;;16.10;91.20;;;;;;5016546;28;20066;-94
2023/05/29 10:15:45;;;;;;;15.23;4.22;;;16.20;90.80;;;;;;5006688;28;20073;-93
2023/05/29 10:18:20;;;;;;;19.60;3.90;;;16.20;90.70;;;;;;4998985;28;20101;-95
2023/05/29 10:20:51;;;;;;;15.88;3.50;;;16.20;89.60;;;;;;5006061;28;20127;-94
2023/05/29 10:23:20;;;;;;;16.27;3.58;;;16.30;90.40;;;;;;5014888;28;20188;-93
2023/05/29 10:25:51;;;;;;;16.25;3.55;;;16.40;91.00;;;;;;5014111;28;20044;-94
2023/05/29 10:28:17;;;;;;;13.82;3.30;;;16.40;90.20;;;;;;5014852;28;20038;-94
2023/05/29 10:31:00;;;;;;;11.88;3.00;;;16.50;90.40;;;;;;5012700;28;20037;-92
2023/05/29 10:34:07;;;;;;;19.00;3.40;;;16.60;90.80;;;;;;5019407;28;20061;-91
2023/05/29 10:36:42;;;;;;;16.73;3.53;;;16.60;89.90;;;;;;4991130;28;20046;-94
2023/05/29 10:39:08;;;;;;;11.30;3.30;;;16.70;90.60;;;;;;5015664;28;20042;-94
2023/05/29 10:41:39;;;;;;;13.68;3.00;;;16.80;90.70;;;;;;5016030;28;20050;-93
2023/05/29 10:44:30;;;;;;;20.80;3.40;;;16.90;90.80;;;;;;5010099;28;20482;-91
2023/05/29 10:46:57;;;;;;;12.93;3.17;;;16.90;90.70;;;;;;5007206;28;20042;-91
2023/05/29 10:49:23;;;;;;;17.65;3.63;;;17.00;90.90;;;;;;5011431;28;20118;-93
2023/05/29 10:51:52;;;;;;;16.60;3.28;;;17.10;90.30;;;;;;5014017;28;20124;-93
2023/05/29 10:54:25;;;;;;;16.13;3.50;;;17.20;90.50;;;;;;5022893;28;20074;-94
2023/05/29 10:57:00;;;;;;;17.48;3.53;;;17.20;86.40;;;;;;5027719;28;20042;-92
2023/05/29 10:59:37;;;;;;;15.90;3.53;;;17.20;85.40;;;;;;5025215;28;20038;-93
2023/05/29 11:02:10;;;;;;;17.33;3.83;;;17.20;88.00;;;;;;4978975;28;20054;-93
2023/05/29 11:05:15;;;;;;;17.00;4.00;;;17.30;88.30;;;;;;4975902;28;20052;-94
2023/05/29 11:08:22;;;;;;;11.85;3.50;;;17.30;87.60;;;;;;4949447;28;20122;-93
2023/05/29 11:11:03;;;;;;;21.25;3.80;;;17.40;89.80;;;;;;4954451;28;20066;-92
2023/05/29 11:14:05;;;;;;;17.75;3.38;;;17.40;86.80;;;;;;4973109;28;20189;-91
2023/05/29 11:16:44;;;;;;;14.88;3.38;;;17.40;83.30;;;;;;4972789;28;20126;-92
2023/05/29 11:19:12;;;;;;;15.45;3.47;;;17.40;88.10;;;;;;4958957;28;20186;-93
2023/05/29 11:22:43;;;;;;;21.60;3.70;;;17.40;89.20;;;;;;4967651;28;20205;-93
2023/05/29 11:25:46;;;;;;;16.25;3.78;;;17.50;85.30;;;;;;4969620;28;20486;-92
2023/05/29 11:28:37;;;;;;;18.23;3.70;;;17.50;87.70;;;;;;4956978;28;20046;-91
2023/05/29 11:34:04;;;;;;;16.98;3.60;;;17.60;89.70;;;;;;5009383;28;20120;-93
2023/05/29 11:36:40;;;;;;;11.10;3.08;;;17.60;87.30;;;;;;5013282;28;20050;-91
2023/05/29 11:39:42;;;;;;;14.27;3.40;;;17.60;89.80;;;;;;5012858;28;20049;-91
2023/05/29 11:42:08;;;;;;;18.80;3.85;;;17.70;89.50;;;;;;5021972;28;20054;-92
2023/05/29 11:44:33;;;;;;;12.80;3.15;;;17.70;89.20;;;;;;5013771;28;20092;-90
2023/05/29 11:47:04;;;;;;;18.92;3.72;;;17.80;90.30;;;;;;5022482;28;20048;-92
2023/05/29 11:49:36;;;;;;;22.75;3.67;;;17.90;88.80;;;;;;5017577;28;20046;-92
2023/05/29 11:52:23;;;;;;;15.30;3.80;;;17.90;87.40;;;;;;5013675;28;20049;-93
2023/05/29 11:54:53;;;;;;;16.60;3.85;;;17.90;90.00;;;;;;5021395;28;20133;-94
2023/05/29 11:57:19;;;;;;;13.50;3.47;;;18.00;89.80;;;;;;5012879;28;20056;-95
2023/05/29 11:59:48;;;;;;;14.90;3.80;;;18.00;90.30;;;;;;5012876;28;20509;-94
2023/05/29 12:02:14;;;;;;;15.55;3.35;;;18.10;89.50;;;;;;5012948;28;20045;-95
2023/05/29 12:04:40;;;;;;;14.65;3.38;;;18.20;88.20;;;;;;5013442;28;20393;-89
2023/05/29 12:07:20;;;;;;;18.40;3.60;;;18.20;89.10;;;;;;5014741;28;20505;-89
2023/05/29 12:09:48;;;;;;;12.35;3.35;;;18.10;85.30;;;;;;4997062;28;20563;-94
2023/05/29 12:12:14;;;;;;;16.65;3.70;;;18.20;88.00;;;;;;5024613;28;20057;-94
2023/05/29 12:14:40;;;;;;;15.20;3.28;;;18.20;86.20;;;;;;4999847;28;20445;-93
2023/05/29 12:17:06;;;;;;;13.40;3.17;;;18.10;86.30;;;;;;5007805;28;20042;-94
2023/05/29 12:19:31;;;;;;;14.25;3.30;;;18.10;87.70;;;;;;5003055;28;20471;-95
2023/05/29 12:22:37;;;;;;;18.70;3.35;;;18.20;88.40;;;;;;5005249;28;20038;-94
2023/05/29 12:25:21;;;;;;;12.77;3.30;;;18.20;84.70;;;;;;4998040;28;20068;-95
2023/05/29 12:27:48;;;;;;;20.25;3.47;;;18.20;86.00;;;;;;5016248;28;20046;-95
2023/05/29 12:30:15;;;;;;;13.82;3.30;;;18.30;83.50;;;;;;5017212;28;20101;-94
2023/05/29 12:32:46;;;;;;;14.43;3.50;;;18.30;86.30;;;;;;5005439;28;20062;-94
2023/05/29 12:35:15;;;;;;;13.93;3.15;;;18.40;87.20;;;;;;5003826;28;20042;-95
2023/05/29 12:37:53;;;;;;;13.40;3.00;;;18.50;85.90;;;;;;5014989;28;20045;-94
2023/05/29 12:40:23;;;;;;;10.98;2.95;;;18.50;85.60;;;;;;5011754;28;20046;-90
2023/05/29 12:43:17;;;;;;;17.10;3.17;;;18.50;84.70;;;;;;5002047;28;20147;-94
2023/05/29 12:45:43;;;;;;;12.40;3.08;;;18.40;80.50;;;;;;5003193;28;20486;-92
2023/05/29 12:49:04;;;;;;;;;;;;;;;;;;;;;
2023/05/29 12:55:50;;;;;;;12.32;3.45;;;18.50;84.30;;;;;;4977344;28;20038;-93